createdAt,value
2023-01-07T00:01:47.341Z,96644.78
2023-01-07T00:04:17.220Z,96639.03
2023-01-07T00:06:47.578Z,96632.88
2023-01-07T00:09:18.838Z,96641.16
2023-01-07T00:11:48.030Z,96634.28
2023-01-07T00:14:17.024Z,96632.81
2023-01-07T00:16:45.444Z,96633.53
2023-01-07T00:19:15.458Z,96634.28
2023-01-07T00:21:44.139Z,96629.22
2023-01-07T00:24:13.405Z,96632.41
2023-01-07T00:26:43.546Z,96639.22
2023-01-07T00:29:12.494Z,96638.50
2023-01-07T00:31:41.819Z,96638.63
2023-01-07T00:34:13.269Z,96633.03
2023-01-07T00:36:43.979Z,96632.94
2023-01-07T00:39:16.510Z,96632.81
2023-01-07T00:42:07.877Z,96628.69
2023-01-07T00:44:38.108Z,96630.81
2023-01-07T00:47:06.890Z,96625.56
2023-01-07T00:49:35.744Z,96628.53
2023-01-07T00:52:04.570Z,96626.28
2023-01-07T00:54:33.332Z,96628.44
2023-01-07T00:57:03.344Z,96623.06
2023-01-07T00:59:31.882Z,96624.22
2023-01-07T01:02:01.850Z,96622.44
2023-01-07T01:04:30.643Z,96627.59
2023-01-07T01:06:59.042Z,96623.31
2023-01-07T01:09:28.701Z,96626.09
2023-01-07T01:11:57.617Z,96622.72
2023-01-07T01:14:27.543Z,96622.81
2023-01-07T01:16:56.326Z,96630.28
2023-01-07T01:19:24.950Z,96618.47
2023-01-07T01:21:53.373Z,96637.03
2023-01-07T01:24:22.587Z,96638.50
2023-01-07T01:26:51.219Z,96629.91
2023-01-07T01:29:19.826Z,96636.41
2023-01-07T01:31:50.514Z,96632.28
2023-01-07T01:34:19.673Z,96633.13
2023-01-07T01:36:48.400Z,96626.31
2023-01-07T01:39:16.936Z,96634.59
2023-01-07T01:41:45.479Z,96634.44
2023-01-07T01:44:40.693Z,96637.00
2023-01-07T01:47:17.610Z,96626.91
2023-01-07T01:49:49.897Z,96633.78
2023-01-07T01:52:21.166Z,96628.03
2023-01-07T01:54:52.396Z,96625.47
2023-01-07T01:57:21.739Z,96627.06
2023-01-07T01:59:51.629Z,96622.59
2023-01-07T02:02:24.991Z,96614.75
2023-01-07T02:04:54.644Z,96627.22
2023-01-07T02:07:23.098Z,96618.75
2023-01-07T02:09:58.615Z,96617.72
2023-01-07T02:12:36.554Z,96615.66
2023-01-07T02:15:12.152Z,96606.50
2023-01-07T02:17:52.431Z,96607.16
2023-01-07T02:20:29.143Z,96606.41
2023-01-07T02:23:52.892Z,96597.84
2023-01-07T02:26:51.054Z,96599.44
2023-01-07T02:30:13.681Z,96601.91
2023-01-07T02:33:06.518Z,96597.72
2023-01-07T02:35:47.092Z,96596.97
2023-01-07T02:38:25.273Z,96590.22
2023-01-07T02:41:01.218Z,96587.38
2023-01-07T02:43:38.369Z,96587.38
2023-01-07T02:46:11.579Z,96594.91
2023-01-07T02:48:42.203Z,96581.44
2023-01-07T02:51:10.992Z,96590.66
2023-01-07T02:53:40.613Z,96585.41
2023-01-07T02:56:18.377Z,96589.66
2023-01-07T02:59:13.878Z,96584.41
2023-01-07T03:01:59.224Z,96579.97
2023-01-07T03:04:39.045Z,96581.63
2023-01-07T03:07:25.795Z,96580.72
2023-01-07T03:10:00.740Z,96583.09
2023-01-07T03:12:33.753Z,96582.09
2023-01-07T03:15:09.464Z,96574.56
2023-01-07T03:17:41.837Z,96577.75
2023-01-07T03:20:12.986Z,96575.13
2023-01-07T03:22:43.009Z,96574.88
2023-01-07T03:25:12.918Z,96574.78
2023-01-07T03:27:43.284Z,96572.97
2023-01-07T03:30:15.536Z,96571.19
2023-01-07T03:32:47.573Z,96573.53
2023-01-07T03:35:19.054Z,96571.00
2023-01-07T03:37:48.893Z,96570.91
2023-01-07T03:40:19.183Z,96570.81
2023-01-07T03:42:49.199Z,96565.72
2023-01-07T03:45:19.680Z,96557.44
2023-01-07T03:47:50.223Z,96556.81
2023-01-07T03:50:20.678Z,96560.25
2023-01-07T03:52:49.728Z,96560.16
2023-01-07T03:55:18.619Z,96554.19
2023-01-07T03:57:47.347Z,96551.78
2023-01-07T04:00:17.581Z,96522.34
2023-01-07T04:02:47.131Z,96540.81
2023-01-07T04:05:16.052Z,96542.16
2023-01-07T04:07:46.080Z,96543.00
2023-01-07T04:10:14.830Z,96534.47
2023-01-07T04:12:43.356Z,96536.84
2023-01-07T04:15:12.674Z,96540.88
2023-01-07T04:17:41.053Z,96539.06
2023-01-07T04:20:10.984Z,96540.72
2023-01-07T04:22:39.556Z,96540.72
2023-01-07T04:25:10.177Z,96532.91
2023-01-07T04:27:38.933Z,96536.19
2023-01-07T04:30:08.684Z,96532.72
2023-01-07T04:32:37.415Z,96532.06
2023-01-07T04:35:06.464Z,96533.88
2023-01-07T04:37:35.239Z,96533.06
2023-01-07T04:40:04.451Z,96535.84
2023-01-07T04:42:34.853Z,96540.88
2023-01-07T04:45:24.011Z,96542.69
2023-01-07T04:47:54.742Z,96536.69
2023-01-07T04:50:23.651Z,96529.78
2023-01-07T04:52:52.160Z,96525.53
2023-01-07T04:55:20.939Z,96522.06
2023-01-07T04:58:18.111Z,96521.00
2023-01-07T05:00:47.448Z,96522.72
2023-01-07T05:03:21.461Z,96523.03
2023-01-07T05:06:00.629Z,96521.41
2023-01-07T05:08:29.276Z,96519.50
2023-01-07T05:10:57.776Z,96516.06
2023-01-07T05:13:28.074Z,96521.00
2023-01-07T05:15:56.517Z,96508.34
2023-01-07T05:18:25.452Z,96513.34
2023-01-07T05:20:54.105Z,96506.50
2023-01-07T05:23:22.476Z,96502.34
2023-01-07T05:25:51.030Z,96503.31
2023-01-07T05:28:19.549Z,96509.16
2023-01-07T05:30:50.116Z,96503.97
2023-01-07T05:33:18.672Z,96497.97
2023-01-07T05:35:49.924Z,96497.81
2023-01-07T05:38:20.839Z,96496.88
2023-01-07T05:40:50.058Z,96490.06
2023-01-07T05:43:19.091Z,96490.06
2023-01-07T05:45:48.090Z,96484.22
2023-01-07T05:48:18.686Z,96485.16
2023-01-07T05:50:47.113Z,96493.53
2023-01-07T05:53:16.121Z,96486.78
2023-01-07T05:55:45.145Z,96482.53
2023-01-07T05:58:13.967Z,96476.59
2023-01-07T06:00:43.239Z,96482.53
2023-01-07T06:03:12.417Z,96480.81
2023-01-07T06:05:42.433Z,96482.53
2023-01-07T06:08:10.941Z,96479.16
2023-01-07T06:10:40.443Z,96481.59
2023-01-07T06:13:08.943Z,96473.97
2023-01-07T06:15:37.657Z,96470.63
2023-01-07T06:21:33.365Z,96475.53
2023-01-07T06:24:02.136Z,96479.78
2023-01-07T06:26:31.005Z,96468.88
2023-01-07T06:28:59.388Z,96466.16
2023-01-07T06:31:28.209Z,96462.22
2023-01-07T06:33:56.616Z,96468.31
2023-01-07T06:36:26.583Z,96462.41
2023-01-07T06:38:56.456Z,96464.03
2023-01-07T06:41:25.108Z,96468.22
2023-01-07T06:43:53.457Z,96465.59
2023-01-07T06:46:22.552Z,96464.50
2023-01-07T06:48:51.040Z,96466.97
2023-01-07T06:51:19.739Z,96468.53
2023-01-07T06:53:48.379Z,96464.25
2023-01-07T06:56:18.529Z,96463.25
2023-01-07T06:58:48.424Z,96464.06
2023-01-07T07:01:17.551Z,96451.44
2023-01-07T07:03:45.986Z,96464.91
2023-01-07T07:06:14.479Z,96464.25
2023-01-07T07:08:43.530Z,96463.44
2023-01-07T07:11:12.498Z,96464.31
2023-01-07T07:13:42.586Z,96472.56
2023-01-07T07:16:12.957Z,96471.44
2023-01-07T07:18:41.613Z,96468.72
2023-01-07T07:21:10.978Z,96464.25
2023-01-07T07:23:39.441Z,96468.28
2023-01-07T07:26:08.292Z,96463.81
2023-01-07T07:28:36.812Z,96463.91
2023-01-07T07:31:07.349Z,96465.47
2023-01-07T07:33:36.119Z,96468.75
2023-01-07T07:36:05.519Z,96458.34
2023-01-07T07:38:33.832Z,96459.19
2023-01-07T07:41:02.702Z,96456.34
2023-01-07T07:43:31.534Z,96459.00
2023-01-07T07:46:00.123Z,96463.84
2023-01-07T07:48:30.296Z,96455.09
2023-01-07T07:51:01.593Z,96457.47
2023-01-07T07:53:30.301Z,96453.09
2023-01-07T07:55:59.267Z,96437.72
2023-01-07T07:58:27.928Z,96443.28
2023-01-07T08:00:57.957Z,96437.25
2023-01-07T08:03:26.566Z,96443.72
2023-01-07T08:05:56.419Z,96437.59
2023-01-07T08:08:25.223Z,96439.88
2023-01-07T08:10:56.433Z,96435.59
2023-01-07T08:13:32.051Z,96420.47
2023-01-07T08:16:00.971Z,96434.84
2023-01-07T08:18:29.796Z,96428.56
2023-01-07T08:21:00.050Z,96432.47
2023-01-07T08:23:30.341Z,96424.41
2023-01-07T08:26:01.641Z,96416.22
2023-01-07T08:28:30.359Z,96416.28
2023-01-07T08:30:59.253Z,96420.69
2023-01-07T08:33:28.070Z,96417.28
2023-01-07T08:36:09.372Z,96412.53
2023-01-07T08:38:38.449Z,96412.34
2023-01-07T08:41:07.459Z,96409.25
2023-01-07T08:43:36.606Z,96404.13
2023-01-07T08:46:05.452Z,96396.75
2023-01-07T08:48:34.096Z,96393.97
2023-01-07T08:51:02.823Z,96391.72
2023-01-07T08:53:32.745Z,96380.72
2023-01-07T08:56:01.467Z,96378.19
2023-01-07T08:58:30.148Z,96376.91
2023-01-07T09:01:03.196Z,96375.72
2023-01-07T09:06:17.126Z,96375.41
2023-01-07T09:08:47.095Z,96369.69
2023-01-07T09:11:15.781Z,96377.75
2023-01-07T09:13:44.197Z,96370.44
2023-01-07T09:16:12.695Z,96377.81
2023-01-07T09:18:41.426Z,96378.03
2023-01-07T09:21:10.020Z,96383.31
2023-01-07T09:23:39.016Z,96372.38
2023-01-07T09:26:09.731Z,96374.31
2023-01-07T09:28:38.751Z,96366.06
2023-01-07T09:31:10.223Z,96363.03
2023-01-07T09:33:43.127Z,96358.13
2023-01-07T09:36:11.865Z,96367.88
2023-01-07T09:38:40.437Z,96356.59
2023-01-07T09:41:20.828Z,96348.75
2023-01-07T09:44:01.155Z,96344.13
2023-01-07T09:46:31.257Z,96347.00
2023-01-07T09:49:04.019Z,96344.28
2023-01-07T09:51:36.655Z,96344.81
2023-01-07T09:54:07.059Z,96337.38
2023-01-07T09:56:38.692Z,96333.50
2023-01-07T09:59:08.728Z,96322.03
2023-01-07T10:01:47.933Z,96322.66
2023-01-07T10:04:27.100Z,96311.50
2023-01-07T10:07:03.046Z,96314.63
2023-01-07T10:09:39.324Z,96312.63
2023-01-07T10:12:17.417Z,96306.88
2023-01-07T10:15:32.212Z,96300.16
2023-01-07T10:18:23.259Z,96292.97
2023-01-07T10:20:57.201Z,96287.44
2023-01-07T10:23:28.940Z,96281.22
2023-01-07T10:25:58.764Z,96275.28
2023-01-07T10:28:38.431Z,96270.47
2023-01-07T10:31:08.162Z,96259.34
2023-01-07T10:33:36.990Z,96258.72
2023-01-07T10:36:15.058Z,96248.94
2023-01-07T10:38:45.033Z,96258.56
2023-01-07T10:41:17.626Z,96254.72
2023-01-07T10:48:15.228Z,96241.81
2023-01-07T10:50:53.661Z,96242.56
2023-01-07T10:53:32.391Z,96234.38
2023-01-07T10:56:09.128Z,96233.63
2023-01-07T10:58:41.231Z,96237.97
2023-01-07T11:01:15.462Z,96211.75
2023-01-07T11:03:44.322Z,96225.44
2023-01-07T11:06:14.623Z,96223.25
2023-01-07T11:08:44.151Z,96212.50
2023-01-07T11:11:16.550Z,96211.00
2023-01-07T11:13:55.253Z,96203.06
2023-01-07T11:16:28.075Z,96201.91
2023-01-07T11:19:00.267Z,96190.97
2023-01-07T11:21:42.685Z,96196.91
2023-01-07T11:25:26.273Z,96186.50
2023-01-07T11:27:57.082Z,96172.09
2023-01-07T11:30:28.295Z,96177.66
2023-01-07T11:33:02.112Z,96184.31
2023-01-07T11:35:30.816Z,96175.75
2023-01-07T11:38:00.822Z,96175.13
2023-01-07T11:40:31.240Z,96169.28
2023-01-07T11:43:01.823Z,96168.31
2023-01-07T11:45:35.338Z,96170.56
2023-01-07T11:48:10.840Z,96167.88
2023-01-07T11:50:43.474Z,96160.47
2023-01-07T11:53:28.292Z,96157.88
2023-01-07T11:56:00.755Z,96133.22
2023-01-07T11:58:31.410Z,96146.16
2023-01-07T12:01:28.773Z,96140.63
2023-01-07T12:04:21.628Z,96130.81
2023-01-07T12:06:51.715Z,96120.81
2023-01-07T12:09:25.668Z,96119.41
2023-01-07T12:11:56.117Z,96106.69
2023-01-07T12:14:27.653Z,96108.91
2023-01-07T12:16:58.069Z,96105.53
2023-01-07T12:19:37.720Z,96093.34
2023-01-07T12:22:20.878Z,96101.63
2023-01-07T12:25:27.678Z,96099.41
2023-01-07T12:28:06.614Z,96091.81
2023-01-07T12:31:02.113Z,96097.69
2023-01-07T12:33:40.963Z,96085.44
2023-01-07T12:36:14.823Z,96081.34
2023-01-07T12:38:46.685Z,96079.47
2023-01-07T12:41:20.034Z,96075.78
2023-01-07T12:44:00.534Z,96075.75
2023-01-07T12:46:35.032Z,96078.00
2023-01-07T12:49:15.731Z,96074.34
2023-01-07T12:51:49.549Z,96067.72
2023-01-07T12:54:20.979Z,96069.94
2023-01-07T12:56:54.575Z,96065.00
2023-01-07T12:59:46.064Z,96054.97
2023-01-07T13:02:23.785Z,96052.78
2023-01-07T13:04:59.925Z,96045.41
2023-01-07T13:07:39.444Z,96049.59
2023-01-07T13:10:14.716Z,96057.16
2023-01-07T13:12:49.096Z,96050.13
2023-01-07T13:15:29.175Z,96043.22
2023-01-07T13:17:59.356Z,96040.63
2023-01-07T13:20:44.242Z,96042.13
2023-01-07T13:23:21.066Z,96032.97
2023-01-07T13:25:59.383Z,96041.81
2023-01-07T13:28:49.074Z,96044.75
2023-01-07T13:31:31.930Z,96041.13
2023-01-07T13:34:10.017Z,96034.69
2023-01-07T13:36:46.126Z,96030.75
2023-01-07T13:39:40.108Z,96031.97
2023-01-07T13:42:18.426Z,96044.91
2023-01-07T13:44:59.239Z,96045.03
2023-01-07T13:47:35.354Z,96039.47
2023-01-07T13:50:05.134Z,96032.53
2023-01-07T13:52:35.170Z,96037.75
2023-01-07T13:55:38.901Z,96028.47
2023-01-07T13:58:41.534Z,96026.66
2023-01-07T14:01:11.254Z,96025.16
2023-01-07T14:03:44.625Z,96027.72
2023-01-07T14:06:50.767Z,96027.34
2023-01-07T14:09:40.288Z,96032.28
2023-01-07T14:12:39.086Z,96032.09
2023-01-07T14:15:43.988Z,96020.75
2023-01-07T14:18:46.540Z,96028.94
2023-01-07T14:21:41.708Z,96029.53
2023-01-07T14:24:28.087Z,96026.56
2023-01-07T14:27:00.979Z,96027.59
2023-01-07T14:29:44.528Z,96034.78
2023-01-07T14:32:31.751Z,96032.75
2023-01-07T14:35:03.025Z,96032.69
2023-01-07T14:37:37.333Z,96026.06
2023-01-07T14:40:43.467Z,96030.09
2023-01-07T14:43:45.828Z,96036.94
2023-01-07T14:46:46.642Z,96037.91
2023-01-07T14:49:47.805Z,96035.63
2023-01-07T14:52:27.420Z,96024.00
2023-01-07T14:55:24.301Z,96036.41
2023-01-07T14:58:03.642Z,96040.69
2023-01-07T15:01:02.117Z,96031.44
2023-01-07T15:03:56.067Z,96037.28
2023-01-07T15:06:29.471Z,96029.53
2023-01-07T15:09:21.690Z,96031.53
2023-01-07T15:15:55.488Z,96023.16
2023-01-07T15:18:51.686Z,96030.47
2023-01-07T15:21:57.565Z,96018.38
2023-01-07T15:24:33.211Z,96015.44
2023-01-07T15:27:07.706Z,96015.31
2023-01-07T15:29:42.623Z,96020.53
2023-01-07T15:32:21.951Z,96017.63
2023-01-07T15:34:51.978Z,96016.75
2023-01-07T15:37:20.757Z,96014.00
2023-01-07T15:39:56.240Z,96016.03
2023-01-07T15:42:25.696Z,96016.22
2023-01-07T15:44:55.391Z,96023.75
2023-01-07T15:47:36.433Z,96021.91
2023-01-07T15:50:37.775Z,96023.28
2023-01-07T15:53:19.607Z,96015.97
2023-01-07T15:55:54.609Z,96015.25
2023-01-07T15:58:30.131Z,96022.81
2023-01-07T16:00:59.792Z,96016.91
2023-01-07T16:03:28.863Z,96023.47
2023-01-07T16:06:00.009Z,96018.78
2023-01-07T16:08:30.689Z,96020.22
2023-01-07T16:11:01.471Z,96017.50
2023-01-07T16:13:32.975Z,96014.75
2023-01-07T16:16:03.756Z,96015.97
2023-01-07T16:18:33.842Z,96006.38
2023-01-07T16:21:05.377Z,96006.59
2023-01-07T16:23:34.976Z,96010.16
2023-01-07T16:26:08.658Z,96014.03
2023-01-07T16:28:40.924Z,96010.47
2023-01-07T16:31:13.827Z,96013.81
2023-01-07T16:33:43.771Z,96015.53
2023-01-07T16:36:16.527Z,96002.88
2023-01-07T16:38:45.566Z,95999.91
2023-01-07T16:41:22.972Z,96008.59
2023-01-07T16:43:52.720Z,96011.03
2023-01-07T16:46:26.986Z,96005.50
2023-01-07T16:49:23.391Z,96003.09
2023-01-07T16:51:54.161Z,96003.00
2023-01-07T16:54:34.477Z,96002.03
2023-01-07T16:59:49.788Z,96003.63
2023-01-07T17:02:31.332Z,95997.28
2023-01-07T17:05:13.457Z,95995.09
2023-01-07T17:07:47.832Z,95995.59
2023-01-07T17:10:24.443Z,95989.16
2023-01-07T17:12:58.781Z,95997.72
2023-01-07T17:15:37.523Z,95993.31
2023-01-07T17:18:28.920Z,95983.59
2023-01-07T17:20:59.595Z,95987.59
2023-01-07T17:23:45.788Z,95996.75
2023-01-07T17:26:19.246Z,95987.69
2023-01-07T17:28:49.768Z,95987.16
2023-01-07T17:31:18.386Z,95986.34
2023-01-07T17:33:49.825Z,95983.88
2023-01-07T17:36:19.744Z,95980.72
2023-01-07T17:38:50.383Z,95986.53
2023-01-07T17:41:37.421Z,95986.53
2023-01-07T17:44:07.033Z,95981.59
2023-01-07T17:46:35.540Z,95975.94
2023-01-07T17:49:04.126Z,95980.38
2023-01-07T17:51:34.818Z,95973.56
2023-01-07T17:54:07.049Z,95970.06
2023-01-07T17:56:36.203Z,95967.16
2023-01-07T17:59:04.967Z,95977.53
2023-01-07T18:01:33.722Z,95969.81
2023-01-07T18:04:02.425Z,95972.44
2023-01-07T18:06:35.049Z,95953.13
2023-01-07T18:09:08.669Z,95956.84
2023-01-07T18:11:56.681Z,95962.38
2023-01-07T18:14:27.523Z,95878.31
2023-01-07T18:16:59.169Z,95959.75
2023-01-07T18:19:27.825Z,95959.56
2023-01-07T18:21:56.218Z,95955.31
2023-01-07T18:24:26.539Z,95959.38
2023-01-07T18:26:56.530Z,95954.47
2023-01-07T18:29:25.327Z,95962.19
2023-01-07T18:31:54.455Z,95955.59
2023-01-07T18:34:23.256Z,95955.66
2023-01-07T18:36:51.905Z,95950.66
2023-01-07T18:39:21.387Z,95959.84
2023-01-07T18:41:51.824Z,95957.50
2023-01-07T18:44:22.016Z,95950.22
2023-01-07T18:46:50.977Z,95956.22
2023-01-07T18:49:19.681Z,95951.50
2023-01-07T18:51:48.829Z,95940.97
2023-01-07T18:54:17.858Z,95951.03
2023-01-07T18:56:47.146Z,95947.97
2023-01-07T18:59:17.435Z,95942.53
2023-01-07T19:01:46.121Z,95943.41
2023-01-07T19:04:15.346Z,95948.88
2023-01-07T19:06:44.320Z,95952.28
2023-01-07T19:09:13.277Z,95945.78
2023-01-07T19:11:44.229Z,95946.56
2023-01-07T19:14:13.204Z,95949.47
2023-01-07T19:16:43.694Z,95949.91
2023-01-07T19:19:12.470Z,95949.22
2023-01-07T19:21:42.127Z,95942.75
2023-01-07T19:24:10.879Z,95946.91
2023-01-07T19:26:42.457Z,95942.13
2023-01-07T19:29:13.909Z,95935.56
2023-01-07T19:31:45.800Z,95940.84
2023-01-07T19:34:15.202Z,95945.34
2023-01-07T19:36:47.501Z,95939.47
2023-01-07T19:39:17.616Z,95948.06
2023-01-07T19:41:46.834Z,95943.34
2023-01-07T19:44:16.366Z,95941.91
2023-01-07T19:46:47.631Z,95944.66
2023-01-07T19:49:18.374Z,95860.53
2023-01-07T19:51:52.382Z,95925.25
2023-01-07T19:54:21.545Z,95944.03
2023-01-07T19:56:50.394Z,95935.22
2023-01-07T19:59:19.199Z,95947.38
2023-01-07T20:01:50.207Z,95947.47
2023-01-07T20:04:20.246Z,95938.41
2023-01-07T20:06:50.753Z,95938.66
2023-01-07T20:09:21.715Z,95936.22
2023-01-07T20:11:50.255Z,95934.19
2023-01-07T20:14:19.374Z,95935.59
2023-01-07T20:16:50.234Z,95943.59
2023-01-07T20:19:23.587Z,95941.41
2023-01-07T20:21:52.089Z,95932.03
2023-01-07T20:24:20.965Z,95944.78
2023-01-07T20:26:49.445Z,95943.22
2023-01-07T20:29:19.026Z,95944.94
2023-01-07T20:31:47.801Z,95943.31
2023-01-07T20:34:18.482Z,95945.94
2023-01-07T20:36:47.374Z,95946.75
2023-01-07T20:39:15.887Z,95932.34
2023-01-07T20:41:44.785Z,95941.84
2023-01-07T20:44:13.682Z,95933.34
2023-01-07T20:46:42.466Z,95934.88
2023-01-07T20:49:11.997Z,95933.25
2023-01-07T20:51:43.619Z,95927.38
2023-01-07T20:54:13.605Z,95931.56
2023-01-07T20:56:42.592Z,95920.59
2023-01-07T20:59:11.745Z,95927.47
2023-01-07T21:01:41.272Z,95931.00
2023-01-07T21:04:10.643Z,95927.84
2023-01-07T21:06:39.793Z,95918.81
2023-01-07T21:09:11.865Z,95924.03
2023-01-07T21:11:40.960Z,95923.22
2023-01-07T21:14:09.522Z,95918.31
2023-01-07T21:16:38.376Z,95919.72
2023-01-07T21:19:07.494Z,95913.16
2023-01-07T21:21:35.994Z,95920.75
2023-01-07T21:24:04.717Z,95918.63
2023-01-07T21:26:34.855Z,95922.88
2023-01-07T21:29:03.596Z,95911.28
2023-01-07T21:31:32.440Z,95915.50
2023-01-07T21:34:01.139Z,95920.91
2023-01-07T21:36:30.031Z,95918.75
2023-01-07T21:39:00.154Z,95919.75
2023-01-07T21:41:29.898Z,95820.78
2023-01-07T21:44:00.571Z,95915.66
2023-01-07T21:46:29.640Z,95924.91
2023-01-07T21:48:59.367Z,95923.16
2023-01-07T21:51:34.396Z,95920.78
2023-01-07T21:54:03.364Z,95921.72
2023-01-07T21:56:35.200Z,95921.63
2023-01-07T21:59:05.875Z,95920.88
2023-01-07T22:01:35.096Z,95915.06
2023-01-07T22:04:04.567Z,95919.09
2023-01-07T22:06:35.222Z,95916.66
2023-01-07T22:09:05.521Z,95922.66
2023-01-07T22:11:46.642Z,95910.38
2023-01-07T22:14:18.864Z,95918.06
2023-01-07T22:16:49.256Z,95911.69
2023-01-07T22:19:18.400Z,95921.16
2023-01-07T22:21:46.875Z,95921.38
2023-01-07T22:24:15.829Z,95918.84
2023-01-07T22:26:46.716Z,95920.72
2023-01-07T22:29:18.904Z,95909.19
2023-01-07T22:31:52.527Z,95916.78
2023-01-07T22:34:22.523Z,95906.81
2023-01-07T22:36:54.695Z,95910.25
2023-01-07T22:39:27.101Z,95910.25
2023-01-07T22:42:00.753Z,95903.69
2023-01-07T22:44:36.160Z,95913.81
2023-01-07T22:47:06.514Z,95911.44
2023-01-07T22:49:35.295Z,95909.59
2023-01-07T22:52:04.401Z,95910.78
2023-01-07T22:54:33.412Z,95913.56
2023-01-07T22:57:02.299Z,95908.84
2023-01-07T22:59:32.280Z,95904.16
2023-01-07T23:02:00.945Z,95898.59
2023-01-07T23:04:30.195Z,95895.31
2023-01-07T23:06:59.364Z,95903.13
2023-01-07T23:09:32.204Z,95892.19
2023-01-07T23:12:01.081Z,95895.72
2023-01-07T23:14:32.655Z,95889.75
2023-01-07T23:17:01.434Z,95880.38
2023-01-07T23:19:32.097Z,95878.53
2023-01-07T23:22:00.888Z,95877.69
2023-01-07T23:24:29.532Z,95881.88
2023-01-07T23:27:02.178Z,95881.81
2023-01-07T23:29:30.652Z,95883.81
2023-01-07T23:32:01.170Z,95879.88
2023-01-07T23:34:30.029Z,95873.91
2023-01-07T23:36:58.757Z,95871.47
2023-01-07T23:39:27.579Z,95868.88
2023-01-07T23:41:56.057Z,95867.53
2023-01-07T23:44:24.590Z,95878.97
2023-01-07T23:46:53.656Z,95867.31
2023-01-07T23:49:23.875Z,95862.19
2023-01-07T23:51:52.737Z,95867.31
2023-01-07T23:54:24.560Z,95870.59
2023-01-07T23:56:58.776Z,95864.78
2023-01-07T23:59:27.764Z,95854.69
